Revloc, Pennsylvania
Current Conditions -  °F | °C
As of 12:54 PM on Monday 22 Dec 2014 (Local Time) from KJST Reporting Station
Clear Clear  
Wind Chill: 22°   Ceiling: Unl
Heat Index: 31°   Visibility: 8mi
Dew Point: 24°   Wind: 12mph
Humidity: 76%   Direction: 150°SSE
Pressure: 30.06"   Gusts: NA
Location:  40.49°N, 78.76°W
Report Text: KJST 221754Z AUTO 15010KT 8SM CLR M01/M04 A3006 RMK AO2 SLP207 T10061044 11006 21056 58022 $
Loading
Personal Weather Stations






























Interactive Weather Map New forecast layout! Learn more

10-Day Weather Forecast

Advertisements
Track Severe Weather on mobile